Time;durP1;ratioP1;P1;durP2;ratioP2;P2;SDS_P1;SDS_P2;PMS_P1;PMS_P2;Temp;Humidity;BMP_temperature;BMP_pressure;BME280_temperature;BME280_humidity;BME280_pressure;Samples;Min_cycle;Max_cycle;Signal;HPM_P1;HPM_P2
2021/10/16 00:00:24;;;;;;;4.07;1.70;;;2.20;99.90;;;;;;5038996;28;20022;-69
2021/10/16 00:02:51;;;;;;;6.10;1.65;;;2.20;99.90;;;;;;5038441;28;20026;-69
2021/10/16 00:05:18;;;;;;;5.10;1.77;;;2.20;99.90;;;;;;5037132;28;20103;-69
2021/10/16 00:07:46;;;;;;;4.60;1.70;;;2.10;99.90;;;;;;5038605;28;20053;-68
2021/10/16 00:10:13;;;;;;;7.30;2.10;;;2.10;99.90;;;;;;5038737;28;20045;-69
2021/10/16 00:12:40;;;;;;;10.35;2.55;;;2.10;99.90;;;;;;5038008;28;20021;-69
2021/10/16 00:15:08;;;;;;;7.85;2.40;;;2.10;99.90;;;;;;5037962;28;20100;-68
2021/10/16 00:17:38;;;;;;;5.50;2.00;;;2.10;99.90;;;;;;5038047;28;20025;-69
2021/10/16 00:20:07;;;;;;;8.98;1.95;;;2.10;99.90;;;;;;5037132;28;20187;-69
2021/10/16 00:22:35;;;;;;;4.20;1.67;;;2.20;99.90;;;;;;5037699;28;20072;-69
2021/10/16 00:25:03;;;;;;;6.63;1.80;;;2.10;99.90;;;;;;5037091;28;20013;-69
2021/10/16 00:27:30;;;;;;;11.98;2.50;;;2.10;99.90;;;;;;5036214;28;20338;-69
2021/10/16 00:29:58;;;;;;;13.60;2.00;;;2.10;99.90;;;;;;5037562;28;20436;-69
2021/10/16 00:32:25;;;;;;;5.70;2.10;;;2.10;99.90;;;;;;5036886;28;20350;-69
2021/10/16 00:34:53;;;;;;;8.18;1.60;;;2.10;99.90;;;;;;5037432;28;20071;-69
2021/10/16 00:37:24;;;;;;;8.27;2.63;;;2.10;99.90;;;;;;5037764;28;20073;-69
2021/10/16 00:39:54;;;;;;;4.95;1.90;;;2.00;99.90;;;;;;5036670;28;20112;-69
2021/10/16 00:42:22;;;;;;;7.03;2.40;;;2.00;99.90;;;;;;5038213;28;20028;-69
2021/10/16 00:44:50;;;;;;;8.52;1.60;;;2.00;99.90;;;;;;5037899;28;20105;-69
2021/10/16 00:47:18;;;;;;;6.80;1.83;;;1.90;99.90;;;;;;5037664;28;20164;-68
2021/10/16 00:49:45;;;;;;;7.47;2.40;;;2.00;99.90;;;;;;5037638;28;20268;-69
2021/10/16 00:52:13;;;;;;;7.32;1.75;;;2.00;99.90;;;;;;5038025;28;20123;-69
2021/10/16 00:54:40;;;;;;;4.07;1.95;;;1.90;99.90;;;;;;5036122;28;20021;-69
2021/10/16 00:57:10;;;;;;;8.07;2.67;;;1.90;99.90;;;;;;5036300;28;20306;-69
2021/10/16 00:59:38;;;;;;;4.85;2.17;;;1.90;99.90;;;;;;5036554;28;20033;-69
2021/10/16 01:02:06;;;;;;;6.82;1.77;;;1.90;99.90;;;;;;5036515;28;20021;-69
2021/10/16 01:04:34;;;;;;;8.13;1.92;;;1.90;99.90;;;;;;5036409;28;20041;-69
2021/10/16 01:07:01;;;;;;;6.68;1.38;;;1.90;99.90;;;;;;5036488;28;20060;-68
2021/10/16 01:09:29;;;;;;;6.82;2.00;;;1.80;99.90;;;;;;5036487;28;20029;-69
2021/10/16 01:11:57;;;;;;;4.13;1.70;;;1.80;99.90;;;;;;5035282;28;20124;-69
2021/10/16 01:14:25;;;;;;;9.48;2.30;;;1.80;99.90;;;;;;5036599;28;20125;-69
2021/10/16 01:16:54;;;;;;;7.95;2.08;;;1.80;99.90;;;;;;5037372;28;20028;-69
2021/10/16 01:19:22;;;;;;;6.13;2.22;;;1.80;99.90;;;;;;5037241;28;20378;-69
2021/10/16 01:21:52;;;;;;;11.73;2.33;;;1.80;99.90;;;;;;5037521;28;20104;-69
2021/10/16 01:24:20;;;;;;;4.80;2.22;;;1.80;99.90;;;;;;5037361;28;20078;-69
2021/10/16 01:26:50;;;;;;;5.35;1.85;;;1.80;99.90;;;;;;5037700;28;20429;-69
2021/10/16 01:29:24;;;;;;;7.72;2.10;;;1.80;99.90;;;;;;5036115;28;20037;-69
2021/10/16 01:31:53;;;;;;;9.60;2.45;;;1.80;99.90;;;;;;5037125;28;20022;-68
2021/10/16 01:34:20;;;;;;;13.13;2.78;;;1.80;99.90;;;;;;5037229;28;20024;-69
2021/10/16 01:36:52;;;;;;;9.98;3.50;;;1.80;99.90;;;;;;5036895;28;20313;-69
2021/10/16 01:39:20;;;;;;;5.63;2.60;;;1.80;99.90;;;;;;5036124;28;20426;-69
2021/10/16 01:41:48;;;;;;;7.63;2.60;;;1.80;99.90;;;;;;5036128;28;20033;-69
2021/10/16 01:44:16;;;;;;;6.50;2.25;;;1.80;99.90;;;;;;5035010;28;20084;-69
2021/10/16 01:46:44;;;;;;;11.48;2.55;;;1.80;99.90;;;;;;5036115;28;20036;-69
2021/10/16 01:49:16;;;;;;;3.92;1.95;;;1.80;99.90;;;;;;5036024;28;20028;-69
2021/10/16 01:51:46;;;;;;;9.02;2.25;;;1.70;99.90;;;;;;5036534;28;20049;-69
2021/10/16 01:54:13;;;;;;;11.63;2.55;;;1.70;99.90;;;;;;5036080;28;20026;-69
2021/10/16 01:56:41;;;;;;;4.57;1.95;;;1.80;99.90;;;;;;5036047;28;20022;-69
2021/10/16 01:59:20;;;;;;;6.57;1.92;;;1.70;99.90;;;;;;5037445;28;20025;-69
2021/10/16 02:01:48;;;;;;;6.20;1.98;;;1.70;99.90;;;;;;5035812;28;20034;-69
2021/10/16 02:04:15;;;;;;;6.40;1.95;;;1.70;99.90;;;;;;5035582;28;20060;-69
2021/10/16 02:06:43;;;;;;;4.07;1.90;;;1.70;99.90;;;;;;5037403;28;20025;-69
2021/10/16 02:09:11;;;;;;;5.20;2.40;;;1.70;99.90;;;;;;5038606;28;20321;-69
2021/10/16 02:11:39;;;;;;;8.27;2.17;;;1.60;99.90;;;;;;5039364;28;20036;-68
2021/10/16 02:14:10;;;;;;;4.57;1.77;;;1.60;99.90;;;;;;5039547;28;20021;-69
2021/10/16 02:16:37;;;;;;;6.93;1.92;;;1.60;99.90;;;;;;5040661;28;20338;-69
2021/10/16 02:19:05;;;;;;;4.38;1.83;;;1.60;99.90;;;;;;5040106;28;20410;-69
2021/10/16 02:21:33;;;;;;;6.40;2.08;;;1.60;99.90;;;;;;5039970;28;20025;-69
2021/10/16 02:24:00;;;;;;;11.05;2.25;;;1.50;99.90;;;;;;5040520;28;20395;-69
2021/10/16 02:26:27;;;;;;;8.93;2.85;;;1.50;99.90;;;;;;5039880;28;20028;-69
2021/10/16 02:28:55;;;;;;;8.02;1.70;;;1.50;99.90;;;;;;5039496;28;20430;-69
2021/10/16 02:31:22;;;;;;;5.03;2.22;;;1.50;99.90;;;;;;5039148;28;20056;-69
2021/10/16 02:33:50;;;;;;;6.50;2.38;;;1.50;99.90;;;;;;5038804;28;20020;-69
2021/10/16 02:36:18;;;;;;;9.23;3.20;;;1.50;99.90;;;;;;5039132;28;20018;-69
2021/10/16 02:38:46;;;;;;;10.45;2.13;;;1.50;99.90;;;;;;5038632;28;20033;-69
2021/10/16 02:41:13;;;;;;;6.03;2.40;;;1.50;99.90;;;;;;5040382;28;20104;-69
2021/10/16 02:43:40;;;;;;;6.47;2.05;;;1.50;99.90;;;;;;5040700;28;20123;-69
2021/10/16 02:46:08;;;;;;;8.02;1.92;;;1.40;99.90;;;;;;5038790;28;20050;-68
2021/10/16 02:48:35;;;;;;;6.10;2.28;;;1.40;99.90;;;;;;5038863;28;20030;-69
2021/10/16 02:51:03;;;;;;;6.25;2.50;;;1.40;99.90;;;;;;5039724;28;20025;-69
2021/10/16 02:53:30;;;;;;;23.48;2.40;;;1.40;99.90;;;;;;5039787;28;20060;-69
2021/10/16 02:55:58;;;;;;;6.80;1.90;;;1.40;99.90;;;;;;5039733;28;20021;-69
2021/10/16 02:58:25;;;;;;;9.90;2.20;;;1.40;99.90;;;;;;5038615;28;20325;-69
2021/10/16 03:00:52;;;;;;;7.40;1.73;;;1.40;99.90;;;;;;5039033;28;20021;-69
2021/10/16 03:03:20;;;;;;;10.40;2.10;;;1.40;99.90;;;;;;5037522;28;20028;-69
2021/10/16 03:05:47;;;;;;;8.15;2.45;;;1.40;99.90;;;;;;5038707;28;20041;-69
2021/10/16 03:08:14;;;;;;;12.60;3.45;;;1.30;99.90;;;;;;5039279;28;20021;-69
2021/10/16 03:10:43;;;;;;;7.53;2.42;;;1.30;99.90;;;;;;5039009;28;20025;-69
2021/10/16 03:13:10;;;;;;;8.00;1.83;;;1.30;99.90;;;;;;5038985;28;20028;-69
2021/10/16 03:15:38;;;;;;;10.15;3.00;;;1.30;99.90;;;;;;5038993;28;20026;-69
2021/10/16 03:18:05;;;;;;;11.15;2.90;;;1.30;99.90;;;;;;5038377;28;20025;-69
2021/10/16 03:20:33;;;;;;;12.10;3.80;;;1.30;99.90;;;;;;5038065;28;20018;-69
2021/10/16 03:23:01;;;;;;;7.75;3.33;;;1.30;99.90;;;;;;5039735;28;20029;-69
2021/10/16 03:25:28;;;;;;;11.30;2.88;;;1.30;99.90;;;;;;5039708;28;20029;-69
2021/10/16 03:27:56;;;;;;;7.43;2.60;;;1.30;99.90;;;;;;5039164;28;20311;-68
2021/10/16 03:30:23;;;;;;;12.95;2.85;;;1.30;99.90;;;;;;5038085;28;20029;-68
2021/10/16 03:32:51;;;;;;;7.15;2.20;;;1.30;99.90;;;;;;5039013;28;20030;-69
2021/10/16 03:35:18;;;;;;;10.35;3.30;;;1.30;99.90;;;;;;5039129;28;20021;-69
2021/10/16 03:37:46;;;;;;;9.43;2.65;;;1.30;99.90;;;;;;5038971;28;20018;-69
2021/10/16 03:40:13;;;;;;;12.00;3.10;;;1.30;99.90;;;;;;5039572;28;20048;-69
2021/10/16 03:42:41;;;;;;;8.25;3.03;;;1.30;99.90;;;;;;5038002;28;20022;-68
2021/10/16 03:45:09;;;;;;;4.43;2.00;;;1.30;99.90;;;;;;5038427;28;20026;-69
2021/10/16 03:47:37;;;;;;;9.10;3.08;;;1.30;99.90;;;;;;5038098;28;20037;-69
2021/10/16 03:50:05;;;;;;;6.88;2.45;;;1.30;99.90;;;;;;5038170;28;20025;-69
2021/10/16 03:52:32;;;;;;;8.18;2.42;;;1.30;99.90;;;;;;5036663;28;20034;-69
2021/10/16 03:54:59;;;;;;;12.45;2.67;;;1.20;99.90;;;;;;5037684;28;20028;-68
2021/10/16 03:57:27;;;;;;;12.27;2.90;;;1.20;99.90;;;;;;5036520;28;20525;-69
2021/10/16 03:59:54;;;;;;;15.55;4.30;;;1.20;99.90;;;;;;5038336;28;20044;-69
2021/10/16 04:02:22;;;;;;;6.70;2.92;;;1.20;99.90;;;;;;5037470;28;20025;-69
2021/10/16 04:04:50;;;;;;;10.95;2.92;;;1.10;99.90;;;;;;5038166;28;20120;-68
2021/10/16 04:07:17;;;;;;;10.27;2.42;;;1.10;99.90;;;;;;5038313;28;20036;-69
2021/10/16 04:09:44;;;;;;;9.98;3.30;;;1.10;99.90;;;;;;5038878;28;20025;-69
2021/10/16 04:12:12;;;;;;;7.78;2.20;;;1.10;99.90;;;;;;5038222;28;20025;-68
2021/10/16 04:14:39;;;;;;;12.13;2.42;;;1.10;99.90;;;;;;5038235;28;20140;-69
2021/10/16 04:17:06;;;;;;;6.82;2.22;;;1.10;99.90;;;;;;5037100;28;20025;-68
2021/10/16 04:19:33;;;;;;;7.28;2.70;;;1.10;99.90;;;;;;5038517;28;20021;-68
2021/10/16 04:22:00;;;;;;;14.15;3.72;;;1.10;99.90;;;;;;5038623;28;20052;-69
2021/10/16 04:24:28;;;;;;;7.70;2.80;;;1.10;99.90;;;;;;5037603;28;20025;-69
2021/10/16 04:26:55;;;;;;;7.78;3.22;;;1.00;99.90;;;;;;5037664;28;20022;-69
2021/10/16 04:29:24;;;;;;;9.02;3.85;;;1.00;99.90;;;;;;5037107;28;20026;-69
2021/10/16 04:31:51;;;;;;;9.48;3.65;;;1.00;99.90;;;;;;5036753;28;20022;-69
2021/10/16 04:34:19;;;;;;;9.00;3.58;;;1.00;99.90;;;;;;5037020;28;20405;-69
2021/10/16 04:36:46;;;;;;;10.52;4.00;;;1.00;99.90;;;;;;5037173;28;20374;-68
2021/10/16 04:39:14;;;;;;;11.10;3.78;;;1.00;99.90;;;;;;5035845;28;20052;-69
2021/10/16 04:41:42;;;;;;;11.52;3.72;;;1.00;99.90;;;;;;5036415;28;20052;-69
2021/10/16 04:44:11;;;;;;;8.05;2.85;;;1.00;99.90;;;;;;5037482;28;20034;-69
2021/10/16 04:46:38;;;;;;;12.80;3.78;;;1.00;99.90;;;;;;5036120;28;20044;-69
2021/10/16 04:49:08;;;;;;;9.60;3.65;;;1.00;99.90;;;;;;5020167;28;20036;-68
2021/10/16 04:51:35;;;;;;;17.05;3.72;;;1.00;99.90;;;;;;5037855;28;20048;-68
2021/10/16 04:54:03;;;;;;;11.85;3.50;;;1.00;99.90;;;;;;5038037;28;20024;-69
2021/10/16 04:56:30;;;;;;;16.20;3.25;;;1.00;99.90;;;;;;5037578;28;20017;-68
2021/10/16 04:58:58;;;;;;;8.57;2.97;;;1.00;99.90;;;;;;5037568;28;20052;-68
2021/10/16 05:01:25;;;;;;;11.10;3.72;;;0.90;99.90;;;;;;5037488;28;20433;-68
2021/10/16 05:03:52;;;;;;;8.32;3.35;;;0.90;99.90;;;;;;5037674;28;20082;-69
2021/10/16 05:06:23;;;;;;;9.38;3.78;;;0.90;99.90;;;;;;5035649;28;20045;-69
2021/10/16 05:08:50;;;;;;;15.68;5.18;;;1.00;99.90;;;;;;5036978;28;20090;-68
2021/10/16 05:11:18;;;;;;;15.00;4.35;;;1.00;99.90;;;;;;5036285;28;20030;-68
2021/10/16 05:13:45;;;;;;;12.55;4.20;;;1.00;99.90;;;;;;5036645;28;20021;-69
2021/10/16 05:16:13;;;;;;;7.72;4.20;;;1.00;99.90;;;;;;5035394;28;20354;-68
2021/10/16 05:18:40;;;;;;;13.85;3.97;;;1.00;99.90;;;;;;5036439;28;20021;-69
2021/10/16 05:21:09;;;;;;;10.35;4.47;;;0.90;99.90;;;;;;5035230;28;20025;-68
2021/10/16 05:23:37;;;;;;;11.02;3.70;;;0.90;99.90;;;;;;5036899;28;20033;-68
2021/10/16 05:26:04;;;;;;;13.60;4.38;;;0.90;99.90;;;;;;5036310;28;20026;-69
2021/10/16 05:28:31;;;;;;;10.45;3.47;;;0.90;99.90;;;;;;5037307;28;20025;-69
2021/10/16 05:30:59;;;;;;;9.07;3.88;;;0.90;99.90;;;;;;5037651;28;20104;-68
2021/10/16 05:33:26;;;;;;;10.07;3.53;;;0.90;99.90;;;;;;5037837;28;20021;-68
2021/10/16 05:35:54;;;;;;;12.45;4.63;;;0.90;99.90;;;;;;5037226;28;20021;-69
2021/10/16 05:38:21;;;;;;;12.48;4.70;;;0.90;99.90;;;;;;5037091;28;20026;-69
2021/10/16 05:40:49;;;;;;;14.68;5.63;;;0.90;99.90;;;;;;5037098;28;20049;-69
2021/10/16 05:43:16;;;;;;;14.73;4.43;;;0.80;99.90;;;;;;5037012;28;20356;-68
2021/10/16 05:45:44;;;;;;;12.68;5.10;;;0.80;99.90;;;;;;5041653;28;20048;-71
2021/10/16 05:48:12;;;;;;;10.82;4.32;;;0.80;99.90;;;;;;5040758;28;20018;-72
2021/10/16 05:50:39;;;;;;;11.95;4.82;;;0.80;99.90;;;;;;5040126;28;20033;-72
2021/10/16 05:53:07;;;;;;;16.60;4.63;;;0.80;99.90;;;;;;5040062;28;20313;-72
2021/10/16 05:55:35;;;;;;;13.60;5.03;;;0.80;99.90;;;;;;5039179;28;20021;-71
2021/10/16 05:58:02;;;;;;;12.65;4.80;;;0.80;99.90;;;;;;5039953;28;20026;-71
2021/10/16 06:00:29;;;;;;;13.70;5.40;;;0.80;99.90;;;;;;5038908;28;20026;-72
2021/10/16 06:02:59;;;;;;;13.68;4.80;;;0.80;99.90;;;;;;5038886;28;20417;-73
2021/10/16 06:05:27;;;;;;;14.45;4.55;;;0.80;99.90;;;;;;5039749;28;20052;-73
2021/10/16 06:07:54;;;;;;;15.63;5.28;;;0.90;99.90;;;;;;5039043;28;20418;-72
2021/10/16 06:10:22;;;;;;;12.48;5.10;;;0.90;99.90;;;;;;5040537;28;20022;-72
2021/10/16 06:12:50;;;;;;;19.23;4.90;;;0.90;99.90;;;;;;5040603;28;20017;-72
2021/10/16 06:15:17;;;;;;;12.60;4.97;;;0.90;99.90;;;;;;5040709;28;20382;-71
2021/10/16 06:17:45;;;;;;;11.10;4.32;;;0.90;99.90;;;;;;5041055;28;20025;-72
2021/10/16 06:20:13;;;;;;;11.90;4.68;;;0.90;99.90;;;;;;5040468;28;20014;-72
2021/10/16 06:22:40;;;;;;;10.88;4.63;;;0.90;99.90;;;;;;5040779;28;20017;-72
2021/10/16 06:25:08;;;;;;;17.70;4.75;;;1.00;99.90;;;;;;5040526;28;20100;-72
2021/10/16 06:27:36;;;;;;;15.32;5.18;;;1.00;99.90;;;;;;5040904;28;20068;-72
2021/10/16 06:30:07;;;;;;;14.38;5.00;;;1.00;99.90;;;;;;5039649;28;20032;-72
2021/10/16 06:32:35;;;;;;;15.45;6.13;;;1.10;99.90;;;;;;5039866;28;20398;-72
2021/10/16 06:35:05;;;;;;;16.88;6.68;;;1.10;99.90;;;;;;5039436;28;20029;-72
2021/10/16 06:37:33;;;;;;;18.30;5.95;;;1.20;99.90;;;;;;5039536;28;20021;-69
2021/10/16 06:40:00;;;;;;;23.15;5.82;;;1.20;99.90;;;;;;5039785;28;20159;-70
2021/10/16 06:42:28;;;;;;;19.33;6.25;;;1.30;99.90;;;;;;5039161;28;20045;-70
2021/10/16 06:44:55;;;;;;;15.98;5.50;;;1.30;99.90;;;;;;5038061;28;20026;-70
2021/10/16 06:47:23;;;;;;;10.98;4.72;;;1.40;99.90;;;;;;5039060;28;20025;-70
2021/10/16 06:49:50;;;;;;;13.25;4.80;;;1.40;99.90;;;;;;5037942;28;20056;-71
2021/10/16 06:52:18;;;;;;;15.43;5.50;;;1.50;99.90;;;;;;5040126;28;20095;-72
2021/10/16 06:54:45;;;;;;;9.27;3.95;;;1.60;99.90;;;;;;5038090;28;20036;-71
2021/10/16 06:57:13;;;;;;;12.68;4.78;;;1.60;99.90;;;;;;5039863;28;20120;-70
2021/10/16 06:59:40;;;;;;;8.32;4.40;;;1.70;99.90;;;;;;5038626;28;20072;-71
2021/10/16 07:02:08;;;;;;;10.60;4.45;;;1.80;99.90;;;;;;5039562;28;20105;-71
2021/10/16 07:04:36;;;;;;;17.00;6.80;;;1.90;99.90;;;;;;5039923;28;20384;-71
2021/10/16 07:07:03;;;;;;;13.43;5.90;;;1.90;99.90;;;;;;5039593;28;20036;-72
2021/10/16 07:09:31;;;;;;;17.40;6.28;;;2.00;99.90;;;;;;5039016;28;20068;-70
2021/10/16 07:11:58;;;;;;;14.52;5.90;;;2.10;99.90;;;;;;5038510;28;20032;-70
2021/10/16 07:14:26;;;;;;;13.93;6.28;;;2.20;99.90;;;;;;5039233;28;20018;-70
2021/10/16 07:16:53;;;;;;;20.08;7.85;;;2.20;99.90;;;;;;5038498;28;20021;-71
2021/10/16 07:19:21;;;;;;;17.38;6.10;;;2.30;99.90;;;;;;5038281;28;20052;-71
2021/10/16 07:21:48;;;;;;;16.65;6.95;;;2.40;99.90;;;;;;5038348;28;20025;-70
2021/10/16 07:24:16;;;;;;;19.15;6.65;;;2.40;99.90;;;;;;5038478;28;20026;-72
2021/10/16 07:26:45;;;;;;;27.35;7.22;;;2.50;99.90;;;;;;5037971;28;20032;-70
2021/10/16 07:29:13;;;;;;;17.40;7.13;;;2.60;99.90;;;;;;5037140;28;20029;-71
2021/10/16 07:31:41;;;;;;;17.02;7.10;;;2.70;99.90;;;;;;5038655;28;20025;-70
2021/10/16 07:34:09;;;;;;;20.92;6.93;;;2.90;99.90;;;;;;5039091;28;20109;-70
2021/10/16 07:36:38;;;;;;;23.15;8.15;;;3.00;99.90;;;;;;5038214;28;20033;-70
2021/10/16 07:39:07;;;;;;;22.13;8.52;;;3.30;99.90;;;;;;5037981;28;20032;-71
2021/10/16 07:41:35;;;;;;;24.45;8.85;;;3.50;99.90;;;;;;5038905;28;20116;-71
2021/10/16 07:44:07;;;;;;;17.73;7.00;;;3.70;99.90;;;;;;5038000;28;20452;-70
2021/10/16 07:46:36;;;;;;;14.13;6.57;;;3.90;99.90;;;;;;5037767;28;20021;-70
2021/10/16 07:49:03;;;;;;;24.20;7.35;;;4.20;99.90;;;;;;5038745;28;20330;-71
2021/10/16 07:51:31;;;;;;;26.50;9.43;;;4.50;99.90;;;;;;5039060;28;20025;-71
2021/10/16 07:53:58;;;;;;;20.67;7.50;;;4.80;99.90;;;;;;5037762;28;20418;-71
2021/10/16 07:56:26;;;;;;;24.50;7.60;;;5.10;99.90;;;;;;5038220;28;20488;-71
2021/10/16 07:58:54;;;;;;;18.85;7.43;;;5.30;99.90;;;;;;5038197;28;20087;-71
2021/10/16 08:01:21;;;;;;;17.98;6.82;;;5.50;99.90;;;;;;5036545;28;20025;-71
2021/10/16 08:03:49;;;;;;;18.67;6.30;;;5.70;99.90;;;;;;5036537;28;20065;-71
2021/10/16 08:06:17;;;;;;;19.10;6.57;;;5.80;99.90;;;;;;5036850;28;20064;-71
2021/10/16 08:08:45;;;;;;;21.77;7.03;;;5.90;99.90;;;;;;5037727;28;20361;-71
2021/10/16 08:11:12;;;;;;;13.48;6.10;;;6.00;99.90;;;;;;5037933;28;20120;-71
2021/10/16 08:13:40;;;;;;;20.52;5.38;;;6.10;99.90;;;;;;5037180;28;20022;-71
2021/10/16 08:16:08;;;;;;;14.82;5.00;;;6.20;99.90;;;;;;5038246;28;20483;-69
2021/10/16 08:18:35;;;;;;;15.27;5.60;;;6.40;99.90;;;;;;5037334;28;20041;-69
2021/10/16 08:21:03;;;;;;;14.63;5.75;;;6.50;99.90;;;;;;5038140;28;20026;-69
2021/10/16 08:23:31;;;;;;;17.65;6.32;;;6.60;99.90;;;;;;5037373;28;20416;-69
2021/10/16 08:25:59;;;;;;;16.05;4.85;;;6.80;99.90;;;;;;5037067;28;20025;-69
2021/10/16 08:28:31;;;;;;;12.25;6.00;;;6.90;99.90;;;;;;5038682;28;20035;-69
2021/10/16 08:31:01;;;;;;;13.05;4.53;;;7.10;99.90;;;;;;5036826;28;20025;-71
2021/10/16 08:33:33;;;;;;;16.52;4.82;;;7.20;99.90;;;;;;5037275;28;20390;-71
2021/10/16 08:36:02;;;;;;;15.35;4.60;;;7.30;99.90;;;;;;5036880;28;20485;-72
2021/10/16 08:38:30;;;;;;;10.82;4.57;;;7.50;99.90;;;;;;5037073;28;20026;-71
2021/10/16 08:40:58;;;;;;;18.08;5.85;;;7.60;99.90;;;;;;5037412;28;20060;-70
2021/10/16 08:43:25;;;;;;;11.00;3.80;;;7.80;99.90;;;;;;5036956;28;20018;-69
2021/10/16 08:46:01;;;;;;;13.73;4.35;;;8.00;99.90;;;;;;5037399;28;20375;-69
2021/10/16 08:48:30;;;;;;;12.57;3.80;;;8.10;99.90;;;;;;5036805;28;20426;-70
2021/10/16 08:50:59;;;;;;;11.35;3.28;;;8.30;99.90;;;;;;5035538;28;20038;-69
2021/10/16 08:53:27;;;;;;;12.45;3.95;;;8.40;99.90;;;;;;5036883;28;20022;-69
2021/10/16 08:55:54;;;;;;;9.70;3.58;;;8.50;99.90;;;;;;5036952;28;20017;-69
2021/10/16 08:58:22;;;;;;;10.82;3.88;;;8.70;99.90;;;;;;5038154;28;20026;-69
2021/10/16 09:00:54;;;;;;;10.35;3.47;;;8.70;99.90;;;;;;5038008;28;20120;-69
2021/10/16 09:03:36;;;;;;;10.13;3.30;;;8.80;99.90;;;;;;5036548;28;20025;-67
2021/10/16 09:06:15;;;;;;;12.90;3.63;;;8.90;99.90;;;;;;5037372;28;20105;-69
2021/10/16 09:08:51;;;;;;;12.63;3.55;;;9.00;99.90;;;;;;5037488;28;20017;-69
2021/10/16 09:11:22;;;;;;;12.15;3.45;;;9.10;99.90;;;;;;5037568;28;20032;-69
2021/10/16 09:13:57;;;;;;;8.85;3.13;;;9.10;99.90;;;;;;5036352;28;20390;-69
2021/10/16 09:16:28;;;;;;;23.30;5.23;;;9.20;99.90;;;;;;5036636;28;20026;-69
2021/10/16 09:19:10;;;;;;;10.70;2.72;;;9.30;99.90;;;;;;5035547;28;20021;-69
2021/10/16 09:21:43;;;;;;;15.15;5.07;;;9.40;99.90;;;;;;5036502;28;20026;-69
2021/10/16 09:24:22;;;;;;;11.32;3.55;;;9.50;99.90;;;;;;5035323;28;20030;-70
2021/10/16 09:26:57;;;;;;;13.80;3.75;;;9.60;99.90;;;;;;5037118;28;20057;-70
2021/10/16 09:29:30;;;;;;;11.93;3.20;;;9.70;99.90;;;;;;5036458;28;20083;-69
2021/10/16 09:32:05;;;;;;;12.32;2.90;;;9.70;99.90;;;;;;5036757;28;20087;-69
2021/10/16 09:34:37;;;;;;;16.67;3.83;;;9.80;99.90;;;;;;5035155;28;20033;-69
2021/10/16 09:37:21;;;;;;;12.60;3.22;;;9.90;99.90;;;;;;5036969;28;20108;-69
2021/10/16 09:39:49;;;;;;;9.55;4.13;;;10.00;99.90;;;;;;5037551;28;20017;-69
2021/10/16 09:42:31;;;;;;;13.40;2.30;;;10.20;99.90;;;;;;5037592;28;20441;-69
2021/10/16 09:45:06;;;;;;;7.63;2.45;;;10.20;99.90;;;;;;5037626;28;20100;-69
2021/10/16 09:47:33;;;;;;;6.32;2.03;;;10.40;99.90;;;;;;5037364;28;20113;-69
2021/10/16 09:50:15;;;;;;;10.65;2.33;;;10.50;99.90;;;;;;5036143;28;20026;-69
2021/10/16 09:52:45;;;;;;;15.35;4.45;;;10.50;99.90;;;;;;5037390;28;20378;-69
2021/10/16 09:55:14;;;;;;;7.63;2.25;;;10.70;99.90;;;;;;5037460;28;20497;-69
2021/10/16 09:57:43;;;;;;;11.40;2.53;;;10.70;99.90;;;;;;5035544;28;20025;-69
2021/10/16 10:00:13;;;;;;;9.90;2.53;;;10.90;99.90;;;;;;5036247;28;20021;-69
2021/10/16 10:02:40;;;;;;;8.07;2.70;;;10.90;99.90;;;;;;5036548;28;20025;-69
2021/10/16 10:05:10;;;;;;;17.55;3.20;;;10.90;99.90;;;;;;5035804;28;20044;-69
2021/10/16 10:07:38;;;;;;;8.48;1.92;;;11.00;99.90;;;;;;5036549;28;20467;-69
2021/10/16 10:10:06;;;;;;;11.30;2.30;;;11.10;99.90;;;;;;5036132;28;20032;-69
2021/10/16 10:12:34;;;;;;;13.57;2.15;;;11.20;99.90;;;;;;5035861;28;20136;-69
2021/10/16 10:15:02;;;;;;;10.77;2.15;;;11.30;99.90;;;;;;5035900;28;20014;-69
2021/10/16 10:17:34;;;;;;;9.50;2.35;;;11.30;99.90;;;;;;5036376;28;20025;-69
2021/10/16 10:20:13;;;;;;;10.45;2.78;;;11.40;99.90;;;;;;5035151;28;20072;-69
2021/10/16 10:22:42;;;;;;;7.75;2.17;;;11.50;99.90;;;;;;5035713;28;20107;-69
2021/10/16 10:25:29;;;;;;;11.18;4.25;;;11.50;99.90;;;;;;5036760;28;20030;-69
2021/10/16 10:27:57;;;;;;;5.60;2.40;;;11.60;99.90;;;;;;5036936;28;20025;-69
2021/10/16 10:30:51;;;;;;;11.23;3.72;;;11.70;99.90;;;;;;5038108;28;20034;-69
2021/10/16 10:33:22;;;;;;;8.02;2.08;;;11.80;99.90;;;;;;5037816;28;20025;-69
2021/10/16 10:36:06;;;;;;;9.52;1.60;;;12.00;99.90;;;;;;5040628;28;20100;-69
2021/10/16 10:38:36;;;;;;;6.90;2.55;;;12.10;99.90;;;;;;5040913;28;20426;-69
2021/10/16 10:41:25;;;;;;;14.20;2.30;;;12.30;99.90;;;;;;5038371;28;20064;-69
2021/10/16 10:43:54;;;;;;;10.30;1.83;;;12.30;99.90;;;;;;5039693;28;20104;-69
2021/10/16 10:46:29;;;;;;;6.90;2.17;;;12.40;99.90;;;;;;5038995;28;20090;-69
2021/10/16 10:49:12;;;;;;;9.60;2.13;;;12.40;99.90;;;;;;5039082;28;20025;-69
2021/10/16 10:51:40;;;;;;;6.40;1.77;;;12.30;99.90;;;;;;5038856;28;20314;-69
2021/10/16 10:54:16;;;;;;;11.27;2.42;;;12.30;99.90;;;;;;5038903;28;20033;-69
2021/10/16 10:56:49;;;;;;;10.65;2.22;;;12.30;99.90;;;;;;5038738;28;20440;-69
2021/10/16 10:59:19;;;;;;;7.90;2.05;;;12.30;99.90;;;;;;5039728;28;20079;-69
2021/10/16 11:01:51;;;;;;;6.68;1.75;;;12.30;99.90;;;;;;5038779;28;20091;-69
2021/10/16 11:04:44;;;;;;;11.75;2.88;;;12.30;99.90;;;;;;5039857;28;20017;-69
2021/10/16 11:07:29;;;;;;;9.02;1.98;;;12.40;99.90;;;;;;5039780;28;20060;-69
2021/10/16 11:09:58;;;;;;;31.00;7.70;;;12.40;99.90;;;;;;5040197;28;20032;-69
2021/10/16 11:12:35;;;;;;;32.72;7.38;;;12.40;99.90;;;;;;5039400;28;20330;-69
2021/10/16 11:15:05;;;;;;;12.52;4.03;;;12.50;99.90;;;;;;5040008;28;20053;-69
2021/10/16 11:17:39;;;;;;;9.70;2.95;;;12.50;99.90;;;;;;5039920;28;20022;-69
2021/10/16 11:20:09;;;;;;;8.02;3.05;;;12.40;99.90;;;;;;5039431;28;20025;-69
2021/10/16 11:22:51;;;;;;;12.82;1.83;;;12.50;99.90;;;;;;5038932;28;20029;-69
2021/10/16 11:25:25;;;;;;;7.18;1.73;;;12.40;99.90;;;;;;5038302;28;20025;-69
2021/10/16 11:28:19;;;;;;;9.80;1.80;;;12.40;99.90;;;;;;5038530;28;20044;-69
2021/10/16 11:30:48;;;;;;;8.80;1.50;;;12.40;99.90;;;;;;5036008;28;20060;-69
2021/10/16 11:33:20;;;;;;;7.28;1.90;;;12.40;99.90;;;;;;5038228;28;20013;-69
2021/10/16 11:35:51;;;;;;;10.02;1.50;;;12.40;99.90;;;;;;5037259;28;20368;-69
2021/10/16 11:38:22;;;;;;;8.55;1.23;;;12.50;99.90;;;;;;5038267;28;20018;-69
2021/10/16 11:40:55;;;;;;;8.15;2.00;;;12.50;99.90;;;;;;5037646;28;20026;-69
2021/10/16 11:43:34;;;;;;;5.70;0.98;;;12.50;99.90;;;;;;5036729;28;20029;-69
2021/10/16 11:46:03;;;;;;;7.07;1.52;;;12.50;99.90;;;;;;5038545;28;20040;-69
2021/10/16 11:48:30;;;;;;;6.75;1.08;;;12.60;99.90;;;;;;5037929;28;20037;-69
2021/10/16 11:51:06;;;;;;;5.40;1.00;;;12.60;99.90;;;;;;5038748;28;20026;-69
2021/10/16 11:53:35;;;;;;;6.32;1.25;;;12.60;99.90;;;;;;5038802;28;20021;-69
2021/10/16 11:56:12;;;;;;;7.90;1.85;;;12.60;99.90;;;;;;5039216;28;20031;-69
2021/10/16 11:58:41;;;;;;;7.00;1.50;;;12.60;99.90;;;;;;5038783;28;20029;-69
2021/10/16 12:01:10;;;;;;;7.50;1.77;;;12.60;99.90;;;;;;5038878;28;20026;-69
2021/10/16 12:03:41;;;;;;;8.40;1.85;;;12.50;99.90;;;;;;5038874;28;20029;-69
2021/10/16 12:06:13;;;;;;;5.00;0.90;;;12.40;99.90;;;;;;5037445;28;20049;-69
2021/10/16 12:08:54;;;;;;;6.53;1.80;;;12.30;99.90;;;;;;5037637;28;20025;-69
2021/10/16 12:11:29;;;;;;;8.40;1.80;;;12.20;99.90;;;;;;5038200;28;20029;-69
2021/10/16 12:14:03;;;;;;;8.82;1.95;;;12.10;99.90;;;;;;5037449;28;20029;-72
2021/10/16 12:16:39;;;;;;;8.07;1.58;;;12.10;99.90;;;;;;5036547;28;20083;-71
2021/10/16 12:19:20;;;;;;;;;;;12.00;99.90;;;;;;5037796;28;20025;-70
2021/10/16 12:21:53;;;;;;;7.07;1.20;;;11.90;99.90;;;;;;5037605;28;19911;-70
2021/10/16 12:24:23;;;;;;;6.18;2.10;;;11.80;99.90;;;;;;5037201;28;20035;-70
2021/10/16 12:27:03;;;;;;;8.70;1.60;;;11.70;99.90;;;;;;5037339;28;20373;-70
2021/10/16 12:29:33;;;;;;;12.35;2.88;;;11.50;99.90;;;;;;5037129;28;20076;-70
2021/10/16 12:32:05;;;;;;;18.13;6.07;;;11.40;99.90;;;;;;5038522;28;20181;-70
2021/10/16 12:34:34;;;;;;;10.25;3.22;;;11.30;99.90;;;;;;5037974;28;20044;-70
2021/10/16 12:37:07;;;;;;;12.25;3.22;;;11.20;99.90;;;;;;5038381;28;20081;-70
2021/10/16 12:39:40;;;;;;;11.13;2.22;;;11.10;99.90;;;;;;5038079;28;20021;-70
2021/10/16 12:42:14;;;;;;;7.03;1.95;;;11.10;99.90;;;;;;5037784;28;20029;-70
2021/10/16 12:44:47;;;;;;;8.68;1.73;;;11.10;99.90;;;;;;5038392;28;20029;-70
2021/10/16 12:47:17;;;;;;;10.00;1.77;;;11.10;99.90;;;;;;5037285;28;20369;-70
2021/10/16 12:49:49;;;;;;;8.40;1.70;;;11.10;99.90;;;;;;5035927;28;20025;-70
2021/10/16 12:52:36;;;;;;;6.60;1.67;;;11.10;99.90;;;;;;5036664;28;20075;-70
2021/10/16 12:55:17;;;;;;;6.75;1.20;;;11.20;99.90;;;;;;5036735;28;20021;-70
2021/10/16 12:57:59;;;;;;;9.68;1.50;;;11.20;99.90;;;;;;5035596;28;20022;-70
2021/10/16 13:00:48;;;;;;;11.10;1.50;;;11.20;99.90;;;;;;5037528;28;20481;-70
2021/10/16 13:03:17;;;;;;;8.25;2.08;;;11.30;99.90;;;;;;5037176;28;20317;-70